sensor_id;sensor_type;location;lat;lon;timestamp;P1;durP1;ratioP1;P2;durP2;ratioP2
78508;SDS011;67802;50.846;7.958;2023-02-22T10:28:16;5.10;;;2.45;;
78508;SDS011;67802;50.846;7.958;2023-02-22T10:36:05;5.68;;;2.20;;
78508;SDS011;67802;50.846;7.958;2023-02-22T10:38:38;5.32;;;2.55;;
78508;SDS011;67802;50.846;7.958;2023-02-22T10:43:55;4.57;;;2.30;;
78508;SDS011;67802;50.846;7.958;2023-02-22T10:46:21;4.72;;;2.03;;
78508;SDS011;67802;50.846;7.958;2023-02-22T10:48:50;5.43;;;2.30;;
78508;SDS011;67802;50.846;7.958;2023-02-22T10:51:18;4.75;;;2.00;;
78508;SDS011;67802;50.846;7.958;2023-02-22T10:53:44;5.22;;;2.22;;
78508;SDS011;67802;50.846;7.958;2023-02-22T10:56:23;6.05;;;1.90;;
78508;SDS011;67802;50.846;7.958;2023-02-22T11:01:20;5.13;;;2.30;;
78508;SDS011;67802;50.846;7.958;2023-02-22T11:06:28;4.43;;;1.95;;
78508;SDS011;67802;50.846;7.958;2023-02-22T11:09:11;4.72;;;1.90;;
78508;SDS011;67802;50.846;7.958;2023-02-22T11:11:46;5.50;;;2.10;;
78508;SDS011;67802;50.846;7.958;2023-02-22T11:14:26;5.40;;;2.00;;
78508;SDS011;67802;50.846;7.958;2023-02-22T11:16:53;4.18;;;1.67;;
78508;SDS011;67802;50.846;7.958;2023-02-22T11:19:21;4.93;;;2.00;;
78508;SDS011;67802;50.846;7.958;2023-02-22T11:21:54;4.80;;;2.10;;
78508;SDS011;67802;50.846;7.958;2023-02-22T11:24:22;4.47;;;1.85;;
78508;SDS011;67802;50.846;7.958;2023-02-22T11:26:52;4.72;;;2.17;;
78508;SDS011;67802;50.846;7.958;2023-02-22T11:29:27;6.30;;;2.05;;
78508;SDS011;67802;50.846;7.958;2023-02-22T11:32:00;4.20;;;2.00;;
78508;SDS011;67802;50.846;7.958;2023-02-22T11:34:29;4.50;;;1.90;;
78508;SDS011;67802;50.846;7.958;2023-02-22T11:37:13;14.73;;;2.20;;
78508;SDS011;67802;50.846;7.958;2023-02-22T11:39:46;4.75;;;1.70;;
78508;SDS011;67802;50.846;7.958;2023-02-22T11:42:25;7.68;;;1.98;;
78508;SDS011;67802;50.846;7.958;2023-02-22T11:47:55;6.45;;;2.40;;
78508;SDS011;67802;50.846;7.958;2023-02-22T11:58:45;8.85;;;1.70;;
78508;SDS011;67802;50.846;7.958;2023-02-22T12:01:15;6.10;;;1.83;;
78508;SDS011;67802;50.846;7.958;2023-02-22T12:07:11;3.97;;;1.67;;
78508;SDS011;67802;50.846;7.958;2023-02-22T12:16:04;4.07;;;1.73;;
78508;SDS011;67802;50.846;7.958;2023-02-22T12:21:12;4.75;;;1.73;;
78508;SDS011;67802;50.846;7.958;2023-02-22T12:26:13;3.88;;;1.50;;
78508;SDS011;67802;50.846;7.958;2023-02-22T12:34:05;3.83;;;1.60;;
78508;SDS011;67802;50.846;7.958;2023-02-22T12:36:41;5.20;;;1.60;;
78508;SDS011;67802;50.846;7.958;2023-02-22T12:39:23;3.63;;;1.50;;
78508;SDS011;67802;50.846;7.958;2023-02-22T12:41:54;3.05;;;1.30;;
78508;SDS011;67802;50.846;7.958;2023-02-22T12:44:23;3.75;;;1.50;;
78508;SDS011;67802;50.846;7.958;2023-02-22T12:46:54;3.25;;;1.50;;
78508;SDS011;67802;50.846;7.958;2023-02-22T13:00:42;3.55;;;1.48;;
78508;SDS011;67802;50.846;7.958;2023-02-22T13:03:42;2.80;;;1.25;;
78508;SDS011;67802;50.846;7.958;2023-02-22T13:17:52;3.72;;;1.52;;
78508;SDS011;67802;50.846;7.958;2023-02-22T13:20:53;3.33;;;1.52;;
78508;SDS011;67802;50.846;7.958;2023-02-22T13:23:32;2.88;;;1.33;;
78508;SDS011;67802;50.846;7.958;2023-02-22T13:29:01;3.05;;;1.30;;
78508;SDS011;67802;50.846;7.958;2023-02-22T13:51:33;2.47;;;1.20;;
78508;SDS011;67802;50.846;7.958;2023-02-22T13:56:42;3.30;;;1.33;;
78508;SDS011;67802;50.846;7.958;2023-02-22T13:59:24;3.58;;;1.33;;
78508;SDS011;67802;50.846;7.958;2023-02-22T14:01:53;3.35;;;1.30;;
78508;SDS011;67802;50.846;7.958;2023-02-22T14:17:38;2.63;;;1.30;;
78508;SDS011;67802;50.846;7.958;2023-02-22T14:20:50;3.40;;;1.30;;
78508;SDS011;67802;50.846;7.958;2023-02-22T14:23:26;3.10;;;1.30;;
78508;SDS011;67802;50.846;7.958;2023-02-22T14:25:47;3.10;;;1.25;;
78508;SDS011;67802;50.846;7.958;2023-02-22T14:36:44;3.60;;;1.35;;
78508;SDS011;67802;50.846;7.958;2023-02-22T14:41:49;2.55;;;1.10;;
78508;SDS011;67802;50.846;7.958;2023-02-22T14:44:20;3.35;;;1.40;;
78508;SDS011;67802;50.846;7.958;2023-02-22T14:46:50;2.95;;;1.30;;
78508;SDS011;67802;50.846;7.958;2023-02-22T14:49:19;3.45;;;1.30;;
78508;SDS011;67802;50.846;7.958;2023-02-22T14:51:49;3.50;;;1.25;;
78508;SDS011;67802;50.846;7.958;2023-02-22T14:54:24;2.47;;;1.10;;
78508;SDS011;67802;50.846;7.958;2023-02-22T14:57:08;3.80;;;1.35;;
78508;SDS011;67802;50.846;7.958;2023-02-22T14:59:49;4.57;;;1.40;;
78508;SDS011;67802;50.846;7.958;2023-02-22T15:02:21;3.13;;;1.40;;
78508;SDS011;67802;50.846;7.958;2023-02-22T15:04:50;3.05;;;1.33;;
78508;SDS011;67802;50.846;7.958;2023-02-22T15:07:22;3.00;;;1.25;;
78508;SDS011;67802;50.846;7.958;2023-02-22T15:13:13;3.40;;;1.25;;
78508;SDS011;67802;50.846;7.958;2023-02-22T15:15:39;3.22;;;1.40;;
78508;SDS011;67802;50.846;7.958;2023-02-22T15:20:54;4.03;;;1.50;;
78508;SDS011;67802;50.846;7.958;2023-02-22T15:23:26;2.33;;;1.00;;
78508;SDS011;67802;50.846;7.958;2023-02-22T15:25:54;2.75;;;1.30;;
78508;SDS011;67802;50.846;7.958;2023-02-22T15:28:20;2.83;;;1.23;;
78508;SDS011;67802;50.846;7.958;2023-02-22T15:30:48;3.42;;;1.33;;
78508;SDS011;67802;50.846;7.958;2023-02-22T15:33:17;2.63;;;1.15;;
78508;SDS011;67802;50.846;7.958;2023-02-22T15:35:56;2.80;;;1.30;;
78508;SDS011;67802;50.846;7.958;2023-02-22T15:38:27;2.92;;;1.40;;
78508;SDS011;67802;50.846;7.958;2023-02-22T15:40:58;3.42;;;1.40;;
78508;SDS011;67802;50.846;7.958;2023-02-22T15:43:28;4.82;;;1.60;;
78508;SDS011;67802;50.846;7.958;2023-02-22T15:45:54;5.40;;;1.40;;
78508;SDS011;67802;50.846;7.958;2023-02-22T15:48:20;2.95;;;1.20;;
78508;SDS011;67802;50.846;7.958;2023-02-22T15:56:13;2.70;;;1.13;;
78508;SDS011;67802;50.846;7.958;2023-02-22T15:58:41;2.90;;;1.30;;
78508;SDS011;67802;50.846;7.958;2023-02-22T16:01:11;4.25;;;1.40;;
78508;SDS011;67802;50.846;7.958;2023-02-22T16:06:23;3.70;;;1.40;;
78508;SDS011;67802;50.846;7.958;2023-02-22T16:08:54;3.63;;;1.27;;
78508;SDS011;67802;50.846;7.958;2023-02-22T16:11:32;2.30;;;1.10;;
78508;SDS011;67802;50.846;7.958;2023-02-22T16:14:03;2.47;;;1.02;;
78508;SDS011;67802;50.846;7.958;2023-02-22T16:16:31;3.58;;;1.30;;
78508;SDS011;67802;50.846;7.958;2023-02-22T16:21:52;2.70;;;1.42;;
78508;SDS011;67802;50.846;7.958;2023-02-22T16:24:32;2.53;;;1.20;;
78508;SDS011;67802;50.846;7.958;2023-02-22T16:29:42;3.70;;;1.60;;
78508;SDS011;67802;50.846;7.958;2023-02-22T16:32:09;4.05;;;1.40;;
78508;SDS011;67802;50.846;7.958;2023-02-22T16:34:35;2.53;;;1.15;;
78508;SDS011;67802;50.846;7.958;2023-02-22T16:37:00;3.30;;;1.50;;
78508;SDS011;67802;50.846;7.958;2023-02-22T16:39:30;2.67;;;1.30;;
78508;SDS011;67802;50.846;7.958;2023-02-22T16:42:00;1.95;;;1.00;;
78508;SDS011;67802;50.846;7.958;2023-02-22T16:44:28;3.85;;;1.30;;
78508;SDS011;67802;50.846;7.958;2023-02-22T16:46:54;2.95;;;1.40;;
78508;SDS011;67802;50.846;7.958;2023-02-22T16:49:23;2.75;;;1.30;;
78508;SDS011;67802;50.846;7.958;2023-02-22T16:51:50;3.03;;;1.20;;
78508;SDS011;67802;50.846;7.958;2023-02-22T16:54:24;3.13;;;1.30;;
78508;SDS011;67802;50.846;7.958;2023-02-22T16:56:53;3.00;;;1.15;;
78508;SDS011;67802;50.846;7.958;2023-02-22T16:59:20;3.42;;;1.63;;
78508;SDS011;67802;50.846;7.958;2023-02-22T17:01:46;2.47;;;1.27;;
78508;SDS011;67802;50.846;7.958;2023-02-22T17:04:15;3.25;;;1.30;;
78508;SDS011;67802;50.846;7.958;2023-02-22T17:06:46;3.70;;;1.58;;
78508;SDS011;67802;50.846;7.958;2023-02-22T17:09:12;3.60;;;1.40;;
78508;SDS011;67802;50.846;7.958;2023-02-22T17:11:39;2.85;;;1.45;;
78508;SDS011;67802;50.846;7.958;2023-02-22T17:14:05;3.15;;;1.30;;
78508;SDS011;67802;50.846;7.958;2023-02-22T17:16:31;3.40;;;1.50;;
78508;SDS011;67802;50.846;7.958;2023-02-22T17:18:56;3.47;;;1.33;;
78508;SDS011;67802;50.846;7.958;2023-02-22T17:21:21;3.47;;;1.50;;
78508;SDS011;67802;50.846;7.958;2023-02-22T17:23:47;2.97;;;1.27;;
78508;SDS011;67802;50.846;7.958;2023-02-22T17:26:12;3.45;;;1.50;;
78508;SDS011;67802;50.846;7.958;2023-02-22T17:28:39;3.72;;;1.40;;
78508;SDS011;67802;50.846;7.958;2023-02-22T17:31:05;4.53;;;1.90;;
78508;SDS011;67802;50.846;7.958;2023-02-22T17:33:31;3.63;;;1.50;;
78508;SDS011;67802;50.846;7.958;2023-02-22T17:35:59;3.25;;;1.50;;
78508;SDS011;67802;50.846;7.958;2023-02-22T17:38:26;5.35;;;1.70;;
78508;SDS011;67802;50.846;7.958;2023-02-22T17:40:53;3.47;;;1.50;;
78508;SDS011;67802;50.846;7.958;2023-02-22T17:43:20;2.60;;;1.10;;
78508;SDS011;67802;50.846;7.958;2023-02-22T17:45:46;2.83;;;1.10;;
78508;SDS011;67802;50.846;7.958;2023-02-22T17:48:12;5.25;;;1.60;;
78508;SDS011;67802;50.846;7.958;2023-02-22T17:50:39;3.55;;;1.30;;
78508;SDS011;67802;50.846;7.958;2023-02-22T17:53:07;4.25;;;1.30;;
78508;SDS011;67802;50.846;7.958;2023-02-22T17:55:34;2.35;;;1.00;;
78508;SDS011;67802;50.846;7.958;2023-02-22T17:58:05;1.95;;;1.13;;
78508;SDS011;67802;50.846;7.958;2023-02-22T18:00:34;2.55;;;1.13;;
78508;SDS011;67802;50.846;7.958;2023-02-22T18:03:05;2.97;;;1.30;;
78508;SDS011;67802;50.846;7.958;2023-02-22T18:05:33;2.88;;;1.40;;
78508;SDS011;67802;50.846;7.958;2023-02-22T18:10:28;3.13;;;1.40;;
78508;SDS011;67802;50.846;7.958;2023-02-22T18:12:54;3.50;;;1.77;;
78508;SDS011;67802;50.846;7.958;2023-02-22T18:15:20;3.30;;;1.60;;
78508;SDS011;67802;50.846;7.958;2023-02-22T18:17:47;3.80;;;1.48;;
78508;SDS011;67802;50.846;7.958;2023-02-22T18:20:14;3.33;;;1.40;;
78508;SDS011;67802;50.846;7.958;2023-02-22T18:22:43;3.70;;;1.45;;
78508;SDS011;67802;50.846;7.958;2023-02-22T18:25:10;3.10;;;1.42;;
78508;SDS011;67802;50.846;7.958;2023-02-22T18:27:37;2.80;;;1.30;;
78508;SDS011;67802;50.846;7.958;2023-02-22T18:30:04;3.45;;;1.50;;
78508;SDS011;67802;50.846;7.958;2023-02-22T18:32:29;3.65;;;1.60;;
78508;SDS011;67802;50.846;7.958;2023-02-22T18:34:56;3.38;;;1.50;;
78508;SDS011;67802;50.846;7.958;2023-02-22T18:37:22;4.28;;;1.65;;
78508;SDS011;67802;50.846;7.958;2023-02-22T18:39:47;3.85;;;1.65;;
78508;SDS011;67802;50.846;7.958;2023-02-22T18:42:12;5.15;;;1.80;;
78508;SDS011;67802;50.846;7.958;2023-02-22T18:44:39;3.47;;;1.40;;
78508;SDS011;67802;50.846;7.958;2023-02-22T18:47:04;3.57;;;1.50;;
78508;SDS011;67802;50.846;7.958;2023-02-22T18:49:29;2.92;;;1.33;;
78508;SDS011;67802;50.846;7.958;2023-02-22T18:51:55;3.05;;;1.30;;
78508;SDS011;67802;50.846;7.958;2023-02-22T18:54:20;3.30;;;1.57;;
78508;SDS011;67802;50.846;7.958;2023-02-22T18:56:46;3.88;;;1.40;;
78508;SDS011;67802;50.846;7.958;2023-02-22T18:59:11;4.03;;;1.60;;
78508;SDS011;67802;50.846;7.958;2023-02-22T19:01:37;3.15;;;1.25;;
78508;SDS011;67802;50.846;7.958;2023-02-22T19:04:05;2.65;;;1.13;;
78508;SDS011;67802;50.846;7.958;2023-02-22T19:06:34;3.38;;;1.60;;
78508;SDS011;67802;50.846;7.958;2023-02-22T19:09:00;2.90;;;1.30;;
78508;SDS011;67802;50.846;7.958;2023-02-22T19:11:26;3.05;;;1.30;;
78508;SDS011;67802;50.846;7.958;2023-02-22T19:13:52;3.28;;;1.60;;
78508;SDS011;67802;50.846;7.958;2023-02-22T19:16:20;3.50;;;1.55;;
78508;SDS011;67802;50.846;7.958;2023-02-22T19:18:47;4.47;;;1.92;;
78508;SDS011;67802;50.846;7.958;2023-02-22T19:21:16;4.75;;;1.67;;
78508;SDS011;67802;50.846;7.958;2023-02-22T19:23:41;3.80;;;1.52;;
78508;SDS011;67802;50.846;7.958;2023-02-22T19:26:11;3.42;;;1.55;;
78508;SDS011;67802;50.846;7.958;2023-02-22T19:28:37;4.00;;;1.60;;
78508;SDS011;67802;50.846;7.958;2023-02-22T19:31:12;5.03;;;1.98;;
78508;SDS011;67802;50.846;7.958;2023-02-22T19:33:39;2.40;;;1.20;;
78508;SDS011;67802;50.846;7.958;2023-02-22T19:36:04;3.78;;;1.42;;
78508;SDS011;67802;50.846;7.958;2023-02-22T19:38:30;3.33;;;1.50;;
78508;SDS011;67802;50.846;7.958;2023-02-22T19:40:55;3.50;;;1.70;;
78508;SDS011;67802;50.846;7.958;2023-02-22T19:43:21;4.27;;;1.60;;
78508;SDS011;67802;50.846;7.958;2023-02-22T19:45:46;3.70;;;1.90;;
78508;SDS011;67802;50.846;7.958;2023-02-22T19:48:11;3.70;;;1.58;;
78508;SDS011;67802;50.846;7.958;2023-02-22T19:50:38;4.13;;;1.70;;
78508;SDS011;67802;50.846;7.958;2023-02-22T19:53:12;4.10;;;1.67;;
78508;SDS011;67802;50.846;7.958;2023-02-22T19:55:38;3.33;;;1.60;;
78508;SDS011;67802;50.846;7.958;2023-02-22T19:58:03;3.25;;;1.50;;
78508;SDS011;67802;50.846;7.958;2023-02-22T20:00:28;3.77;;;1.90;;
78508;SDS011;67802;50.846;7.958;2023-02-22T20:02:59;4.82;;;1.80;;
78508;SDS011;67802;50.846;7.958;2023-02-22T20:05:30;3.35;;;1.75;;
78508;SDS011;67802;50.846;7.958;2023-02-22T20:07:56;3.33;;;1.50;;
78508;SDS011;67802;50.846;7.958;2023-02-22T20:10:21;3.53;;;1.70;;
78508;SDS011;67802;50.846;7.958;2023-02-22T20:12:47;4.03;;;1.90;;
78508;SDS011;67802;50.846;7.958;2023-02-22T20:15:12;3.03;;;1.43;;
78508;SDS011;67802;50.846;7.958;2023-02-22T20:17:37;3.70;;;1.90;;
78508;SDS011;67802;50.846;7.958;2023-02-22T20:20:03;4.75;;;1.83;;
78508;SDS011;67802;50.846;7.958;2023-02-22T20:22:30;4.50;;;2.20;;
78508;SDS011;67802;50.846;7.958;2023-02-22T20:24:55;3.78;;;1.77;;
78508;SDS011;67802;50.846;7.958;2023-02-22T20:27:21;4.13;;;1.63;;
78508;SDS011;67802;50.846;7.958;2023-02-22T20:29:48;4.05;;;1.45;;
78508;SDS011;67802;50.846;7.958;2023-02-22T20:32:14;3.88;;;1.95;;
78508;SDS011;67802;50.846;7.958;2023-02-22T20:34:43;4.40;;;1.80;;
78508;SDS011;67802;50.846;7.958;2023-02-22T20:37:10;4.90;;;2.10;;
78508;SDS011;67802;50.846;7.958;2023-02-22T20:39:35;4.00;;;1.90;;
78508;SDS011;67802;50.846;7.958;2023-02-22T20:42:00;4.57;;;2.00;;
78508;SDS011;67802;50.846;7.958;2023-02-22T20:44:28;3.75;;;1.77;;
78508;SDS011;67802;50.846;7.958;2023-02-22T20:46:54;4.30;;;1.90;;
78508;SDS011;67802;50.846;7.958;2023-02-22T20:49:19;4.32;;;1.67;;
78508;SDS011;67802;50.846;7.958;2023-02-22T20:51:46;4.88;;;2.30;;
78508;SDS011;67802;50.846;7.958;2023-02-22T20:54:12;4.18;;;2.00;;
78508;SDS011;67802;50.846;7.958;2023-02-22T20:56:39;4.57;;;2.30;;
78508;SDS011;67802;50.846;7.958;2023-02-22T20:59:06;4.68;;;2.45;;
78508;SDS011;67802;50.846;7.958;2023-02-22T21:01:32;4.90;;;1.88;;
78508;SDS011;67802;50.846;7.958;2023-02-22T21:04:02;4.85;;;2.30;;
78508;SDS011;67802;50.846;7.958;2023-02-22T21:06:30;4.43;;;2.20;;
78508;SDS011;67802;50.846;7.958;2023-02-22T21:08:58;4.30;;;2.20;;
78508;SDS011;67802;50.846;7.958;2023-02-22T21:11:25;4.32;;;2.35;;
78508;SDS011;67802;50.846;7.958;2023-02-22T21:13:52;4.75;;;2.00;;
78508;SDS011;67802;50.846;7.958;2023-02-22T21:16:18;4.53;;;2.38;;
78508;SDS011;67802;50.846;7.958;2023-02-22T21:18:48;4.93;;;2.47;;
78508;SDS011;67802;50.846;7.958;2023-02-22T21:21:15;5.03;;;2.40;;
78508;SDS011;67802;50.846;7.958;2023-02-22T21:23:40;4.95;;;2.00;;
78508;SDS011;67802;50.846;7.958;2023-02-22T21:26:08;4.20;;;2.05;;
78508;SDS011;67802;50.846;7.958;2023-02-22T21:28:39;3.97;;;1.73;;
78508;SDS011;67802;50.846;7.958;2023-02-22T21:31:07;4.22;;;2.25;;
78508;SDS011;67802;50.846;7.958;2023-02-22T21:33:33;4.43;;;1.95;;
78508;SDS011;67802;50.846;7.958;2023-02-22T21:36:02;5.00;;;2.22;;
78508;SDS011;67802;50.846;7.958;2023-02-22T21:38:44;4.55;;;2.05;;
78508;SDS011;67802;50.846;7.958;2023-02-22T21:41:12;4.45;;;2.00;;
78508;SDS011;67802;50.846;7.958;2023-02-22T21:43:39;5.15;;;2.38;;
78508;SDS011;67802;50.846;7.958;2023-02-22T21:46:05;5.70;;;2.40;;
78508;SDS011;67802;50.846;7.958;2023-02-22T21:48:35;4.68;;;2.30;;
78508;SDS011;67802;50.846;7.958;2023-02-22T21:51:06;4.32;;;2.20;;
78508;SDS011;67802;50.846;7.958;2023-02-22T21:53:38;4.68;;;1.98;;
78508;SDS011;67802;50.846;7.958;2023-02-22T21:56:09;5.32;;;2.40;;
78508;SDS011;67802;50.846;7.958;2023-02-22T21:58:36;4.18;;;1.80;;
78508;SDS011;67802;50.846;7.958;2023-02-22T22:01:04;5.00;;;2.20;;
78508;SDS011;67802;50.846;7.958;2023-02-22T22:03:31;3.92;;;1.85;;
78508;SDS011;67802;50.846;7.958;2023-02-22T22:05:56;4.30;;;2.08;;
78508;SDS011;67802;50.846;7.958;2023-02-22T22:08:24;3.58;;;1.80;;
78508;SDS011;67802;50.846;7.958;2023-02-22T22:10:51;5.25;;;2.40;;
78508;SDS011;67802;50.846;7.958;2023-02-22T22:13:19;4.97;;;2.28;;
78508;SDS011;67802;50.846;7.958;2023-02-22T22:15:49;4.20;;;2.10;;
78508;SDS011;67802;50.846;7.958;2023-02-22T22:18:15;5.15;;;2.80;;
78508;SDS011;67802;50.846;7.958;2023-02-22T22:20:40;4.88;;;2.17;;
78508;SDS011;67802;50.846;7.958;2023-02-22T22:23:08;4.60;;;2.20;;
78508;SDS011;67802;50.846;7.958;2023-02-22T22:25:33;4.60;;;2.13;;
78508;SDS011;67802;50.846;7.958;2023-02-22T22:28:02;5.22;;;2.33;;
78508;SDS011;67802;50.846;7.958;2023-02-22T22:30:29;4.60;;;2.00;;
78508;SDS011;67802;50.846;7.958;2023-02-22T22:32:54;4.30;;;2.13;;
78508;SDS011;67802;50.846;7.958;2023-02-22T22:35:19;4.93;;;2.37;;
78508;SDS011;67802;50.846;7.958;2023-02-22T22:37:46;4.78;;;2.10;;
78508;SDS011;67802;50.846;7.958;2023-02-22T22:40:15;4.75;;;2.38;;
78508;SDS011;67802;50.846;7.958;2023-02-22T22:42:41;4.97;;;2.10;;
78508;SDS011;67802;50.846;7.958;2023-02-22T22:45:07;4.10;;;2.20;;
78508;SDS011;67802;50.846;7.958;2023-02-22T22:47:36;4.13;;;2.00;;
78508;SDS011;67802;50.846;7.958;2023-02-22T22:50:11;4.95;;;2.40;;
78508;SDS011;67802;50.846;7.958;2023-02-22T22:52:37;4.97;;;2.17;;
78508;SDS011;67802;50.846;7.958;2023-02-22T22:55:03;7.30;;;2.65;;
78508;SDS011;67802;50.846;7.958;2023-02-22T22:57:34;4.45;;;2.10;;
78508;SDS011;67802;50.846;7.958;2023-02-22T22:59:59;4.38;;;2.20;;
78508;SDS011;67802;50.846;7.958;2023-02-22T23:02:25;4.80;;;2.33;;
78508;SDS011;67802;50.846;7.958;2023-02-22T23:04:50;3.97;;;2.13;;
78508;SDS011;67802;50.846;7.958;2023-02-22T23:07:16;4.72;;;2.17;;
78508;SDS011;67802;50.846;7.958;2023-02-22T23:09:41;5.05;;;2.53;;
78508;SDS011;67802;50.846;7.958;2023-02-22T23:12:07;4.43;;;2.15;;
78508;SDS011;67802;50.846;7.958;2023-02-22T23:14:34;4.75;;;2.50;;
78508;SDS011;67802;50.846;7.958;2023-02-22T23:17:03;4.72;;;2.33;;
78508;SDS011;67802;50.846;7.958;2023-02-22T23:21:56;5.00;;;2.45;;
78508;SDS011;67802;50.846;7.958;2023-02-22T23:24:23;5.25;;;2.45;;
78508;SDS011;67802;50.846;7.958;2023-02-22T23:26:51;4.55;;;2.38;;
78508;SDS011;67802;50.846;7.958;2023-02-22T23:29:18;5.25;;;2.72;;
78508;SDS011;67802;50.846;7.958;2023-02-22T23:39:31;4.72;;;2.50;;
78508;SDS011;67802;50.846;7.958;2023-02-22T23:41:56;4.72;;;2.40;;
78508;SDS011;67802;50.846;7.958;2023-02-22T23:44:27;6.10;;;2.80;;
78508;SDS011;67802;50.846;7.958;2023-02-22T23:46:53;5.25;;;2.53;;
78508;SDS011;67802;50.846;7.958;2023-02-22T23:49:19;5.03;;;2.67;;
78508;SDS011;67802;50.846;7.958;2023-02-22T23:51:46;5.35;;;2.50;;
78508;SDS011;67802;50.846;7.958;2023-02-22T23:54:13;5.07;;;2.50;;
78508;SDS011;67802;50.846;7.958;2023-02-22T23:56:43;5.60;;;2.55;;
78508;SDS011;67802;50.846;7.958;2023-02-22T23:59:13;5.40;;;2.80;;
